This is the latest recevied weather packets stored in our database for station/object HS1AXC-1. If no packets are shown the sender has not sent any weather packets the latest 1 day(s).
| Time | Temp. | Humidity | Pressure | Rain* | Wind** | Luminosity | Snow |
|---|---|---|---|---|---|---|---|
| 1836274763 | 33.33° C | 75% | 1009 hPa | - | 0 m/s | 3 W/m² | - |
| 1836274141 | 32.78° C | 80% | 1009 hPa | - | 0 m/s | 3 W/m² | - |
| 1778045261 | 37.78° C | 56% | 1008 hPa | - | 0 m/s | 2 W/m² | - |
| 1778044639 | 37.78° C | 56% | 1009 hPa | - | 0 m/s | 1 W/m² | - |
| 1778044017 | 37.78° C | 52% | 1009 hPa | - | 0 m/s | 1 W/m² | - |
| 1778043395 | 38.33° C | 51% | 1009 hPa | - | 0 m/s | 3 W/m² | - |
| 1778042773 | 36.67° C | 56% | 1009 hPa | - | 0 m/s | 3 W/m² | - |
| 1778042151 | 38.33° C | 56% | 1009 hPa | - | 0 m/s | 1 W/m² | - |
| 1778041512 | 37.22° C | 60% | 1009 hPa | - | 0 m/s | 1 W/m² | - |
| 1778040890 | 37.78° C | 58% | 1009 hPa | - | 0 m/s | 1 W/m² | - |
| 1778040268 | 37.22° C | 59% | 1010 hPa | - | 0 m/s | 1 W/m² | - |
| 1778039646 | 36.67° C | 63% | 1010 hPa | - | 0 m/s | 1 W/m² | - |
| 1778038891 | 36.67° C | 64% | 1010 hPa | - | 0 m/s | 1 W/m² | - |
| 1778038269 | 36.11° C | 66% | 1010 hPa | - | 0 m/s | 1 W/m² | - |
| 1778037647 | 36.67° C | 64% | 1010 hPa | - | 0 m/s | 1 W/m² | - |
| 1778037025 | 36.11° C | 67% | 1010 hPa | - | 0 m/s | 1 W/m² | - |
| 1778036403 | 36.11° C | 67% | 1010 hPa | - | 0 m/s | 1 W/m² | - |
| 1778035781 | 35.56° C | 69% | 1010 hPa | - | 0 m/s | 0 W/m² | - |
| 1778035159 | 36.11° C | 70% | 1010 hPa | - | 0 m/s | 2 W/m² | - |
| 1778034537 | 36.67° C | 70% | 1010 hPa | - | 0 m/s | 2 W/m² | - |
| 1778033915 | 36.11° C | 73% | 1010 hPa | - | 0 m/s | 2 W/m² | - |
| 1778033293 | 35.56° C | 73% | 1010 hPa | - | 0 m/s | 2 W/m² | - |
| 1778032671 | 35° C | 76% | 1010 hPa | - | 0 m/s | 2 W/m² | - |
| 1778032049 | 35° C | 76% | 1010 hPa | - | 0 m/s | 2 W/m² | - |
| 1778031426 | 35° C | 75% | 1010 hPa | - | 0 m/s | 2 W/m² | - |
* Rain since midnight (hover to see other rain measurements)
** Current wind speed in m/s (hover to see current wind gust speed)